Terminal Aerodrome Forecast
Issued by NWS Twin Cities, MN

Home | Current Version | Previous Version | Text Only | Print | Product List | Glossary On
Versions: 1 2 3 4 5 6 7 8 9 10 11 12 13 14 15 16 17
110
FTUS43 KMPX 230520
TAFEAU
TAF
KEAU 230520Z 2306/2406 29004KT P6SM BKN120
     FM231400 29014G22KT P6SM SCT025 OVC050
     FM240000 30010KT P6SM BKN050=

USA.gov is the U.S. government's official web portal to all federal, state and local government web resources and services.